Time;durP1;ratioP1;P1;durP2;ratioP2;P2;SDS_P1;SDS_P2;PMS_P1;PMS_P2;Temp;Humidity;BMP_temperature;BMP_pressure;BME280_temperature;BME280_humidity;BME280_pressure;Samples;Min_cycle;Max_cycle;Signal;HPM_P1;HPM_P2
2022/07/05 00:01:49;;;;;;;0.60;0.50;;;;;;;;;;5058277;28;20317;-71
2022/07/05 00:04:37;;;;;;;0.60;0.50;;;;;;;;;;5055925;28;20215;-71
2022/07/05 00:07:24;;;;;;;0.93;0.60;;;;;;;;;;5060352;28;20202;-71
2022/07/05 00:10:11;;;;;;;0.50;0.50;;;;;;;;;;5060867;28;20232;-71
2022/07/05 00:12:58;;;;;;;0.50;0.50;;;;;;;;;;5056992;28;20206;-71
2022/07/05 00:15:45;;;;;;;1.37;0.60;;;;;;;;;;5063366;28;20213;-70
2022/07/05 00:18:32;;;;;;;0.70;0.67;;;;;;;;;;5058789;28;20688;-70
2022/07/05 00:21:20;;;;;;;0.97;0.60;;;;;;;;;;5061761;28;20213;-72
2022/07/05 00:24:07;;;;;;;0.67;0.53;;;;;;;;;;5054540;28;20210;-71
2022/07/05 00:26:54;;;;;;;1.20;0.40;;;;;;;;;;5060009;28;20658;-71
2022/07/05 00:29:41;;;;;;;0.50;0.50;;;;;;;;;;5059939;28;20202;-71
2022/07/05 00:32:28;;;;;;;0.60;0.60;;;;;;;;;;5060304;28;20269;-71
2022/07/05 00:35:15;;;;;;;1.13;0.60;;;;;;;;;;5058888;28;20583;-71
2022/07/05 00:38:04;;;;;;;0.60;0.50;;;;;;;;;;5052439;28;20293;-71
2022/07/05 00:40:51;;;;;;;0.83;0.57;;;;;;;;;;5058921;28;20206;-70
2022/07/05 00:43:38;;;;;;;0.40;0.40;;;;;;;;;;5059171;28;20237;-71
2022/07/05 00:46:25;;;;;;;0.50;0.50;;;;;;;;;;5056623;28;20697;-71
2022/07/05 00:49:12;;;;;;;0.50;0.50;;;;;;;;;;5063330;28;20316;-71
2022/07/05 00:52:00;;;;;;;0.40;0.40;;;;;;;;;;5056558;28;20266;-71
2022/07/05 00:54:48;;;;;;;0.50;0.50;;;;;;;;;;5056585;28;20281;-71
2022/07/05 00:57:36;;;;;;;0.67;0.50;;;;;;;;;;5058494;28;20202;-71
2022/07/05 01:00:23;;;;;;;1.07;0.40;;;;;;;;;;5059389;28;20203;-71
2022/07/05 01:03:11;;;;;;;0.50;0.50;;;;;;;;;;5060286;28;20319;-71
2022/07/05 01:05:59;;;;;;;0.30;0.30;;;;;;;;;;5059469;28;20690;-71
2022/07/05 01:08:47;;;;;;;0.70;0.70;;;;;;;;;;5056103;28;20202;-71
2022/07/05 01:11:35;;;;;;;0.80;0.60;;;;;;;;;;5056404;28;20224;-71
2022/07/05 01:14:24;;;;;;;0.83;0.83;;;;;;;;;;5054924;28;20307;-71
2022/07/05 01:17:12;;;;;;;0.70;0.70;;;;;;;;;;5063659;28;20665;-71
2022/07/05 01:19:59;;;;;;;1.50;0.50;;;;;;;;;;5058137;28;20669;-71
2022/07/05 01:23:02;;;;;;;0.67;0.67;;;;;;;;;;5057598;28;20209;-71
2022/07/05 01:25:49;;;;;;;0.50;0.43;;;;;;;;;;5056238;28;20247;-71
2022/07/05 01:28:37;;;;;;;0.47;0.40;;;;;;;;;;5051425;28;20211;-71
2022/07/05 01:31:24;;;;;;;1.03;0.50;;;;;;;;;;5061686;28;20217;-71
2022/07/05 01:34:11;;;;;;;0.40;0.40;;;;;;;;;;5057454;28;20234;-71
2022/07/05 01:36:58;;;;;;;0.53;0.53;;;;;;;;;;5066557;28;20215;-71
2022/07/05 01:39:47;;;;;;;0.50;0.50;;;;;;;;;;5057779;28;20296;-71
2022/07/05 01:42:34;;;;;;;0.37;0.37;;;;;;;;;;5056444;28;20210;-71
2022/07/05 01:48:23;;;;;;;0.40;0.40;;;;;;;;;;5049686;28;20207;-71
2022/07/05 01:51:23;;;;;;;1.03;0.43;;;;;;;;;;5057498;28;20210;-71
2022/07/05 01:54:10;;;;;;;0.97;0.60;;;;;;;;;;5064276;28;20229;-70
2022/07/05 01:56:59;;;;;;;1.53;0.40;;;;;;;;;;5056365;28;20208;-70
2022/07/05 01:59:46;;;;;;;0.60;0.60;;;;;;;;;;5061285;28;20206;-71
2022/07/05 02:02:33;;;;;;;0.50;0.50;;;;;;;;;;5065294;28;20237;-71
2022/07/05 02:05:19;;;;;;;0.40;0.40;;;;;;;;;;5063201;28;20211;-70
2022/07/05 02:08:06;;;;;;;0.30;0.30;;;;;;;;;;5061062;28;20207;-70
2022/07/05 02:10:53;;;;;;;0.37;0.37;;;;;;;;;;5058975;28;20234;-70
2022/07/05 02:13:42;;;;;;;0.40;0.30;;;;;;;;;;5059652;28;20656;-70
2022/07/05 02:16:29;;;;;;;0.40;0.40;;;;;;;;;;5065781;28;20683;-70
2022/07/05 02:19:16;;;;;;;0.50;0.50;;;;;;;;;;5058413;28;20219;-70
2022/07/05 02:22:04;;;;;;;0.40;0.40;;;;;;;;;;5060324;28;20210;-71
2022/07/05 02:24:51;;;;;;;1.20;0.50;;;;;;;;;;5059572;28;20284;-71
2022/07/05 02:27:38;;;;;;;0.30;0.30;;;;;;;;;;5062672;28;20225;-71
2022/07/05 02:30:26;;;;;;;0.60;0.50;;;;;;;;;;5061453;28;20210;-71
2022/07/05 02:33:13;;;;;;;0.93;0.50;;;;;;;;;;5064780;28;20198;-70
2022/07/05 02:36:07;;;;;;;0.57;0.40;;;;;;;;;;5057792;28;20328;-70
2022/07/05 02:38:54;;;;;;;0.70;0.70;;;;;;;;;;5056311;28;20201;-70
2022/07/05 02:41:41;;;;;;;0.53;0.50;;;;;;;;;;5055129;28;20255;-70
2022/07/05 02:44:28;;;;;;;0.47;0.40;;;;;;;;;;5063085;28;20724;-70
2022/07/05 02:47:16;;;;;;;0.40;0.40;;;;;;;;;;5054746;28;20272;-72
2022/07/05 02:50:05;;;;;;;0.40;0.40;;;;;;;;;;5060530;28;20294;-70
2022/07/05 02:52:52;;;;;;;0.70;0.50;;;;;;;;;;5059901;28;20199;-70
2022/07/05 02:55:39;;;;;;;0.57;0.57;;;;;;;;;;5056745;28;20284;-71
2022/07/05 02:58:26;;;;;;;0.60;0.47;;;;;;;;;;5060523;28;20302;-70
2022/07/05 03:01:13;;;;;;;1.17;0.50;;;;;;;;;;5058982;28;20566;-71
2022/07/05 03:04:06;;;;;;;0.90;0.63;;;;;;;;;;5061034;28;20208;-71
2022/07/05 03:06:53;;;;;;;0.40;0.40;;;;;;;;;;5059297;28;20611;-70
2022/07/05 03:09:40;;;;;;;0.70;0.40;;;;;;;;;;5063143;28;20235;-71
2022/07/05 03:12:27;;;;;;;0.43;0.40;;;;;;;;;;5060203;28;20359;-70
2022/07/05 03:15:14;;;;;;;0.60;0.23;;;;;;;;;;5057059;28;20226;-71
2022/07/05 03:18:01;;;;;;;0.80;0.50;;;;;;;;;;5059804;28;20215;-71
2022/07/05 03:20:49;;;;;;;0.83;0.53;;;;;;;;;;5058492;28;20287;-70
2022/07/05 03:23:36;;;;;;;0.50;0.50;;;;;;;;;;5059467;28;20262;-71
2022/07/05 03:26:23;;;;;;;1.57;0.57;;;;;;;;;;5058737;28;20206;-71
2022/07/05 03:29:10;;;;;;;0.90;0.63;;;;;;;;;;5054558;28;20237;-70
2022/07/05 03:31:57;;;;;;;0.40;0.40;;;;;;;;;;5063139;28;20554;-70
2022/07/05 03:34:44;;;;;;;0.37;0.33;;;;;;;;;;5062782;28;20227;-70
2022/07/05 03:37:32;;;;;;;0.67;0.50;;;;;;;;;;5062052;28;20585;-71
2022/07/05 03:40:19;;;;;;;0.50;0.50;;;;;;;;;;5058245;28;20208;-70
2022/07/05 03:43:08;;;;;;;0.60;0.60;;;;;;;;;;5061014;28;20204;-71
2022/07/05 03:45:55;;;;;;;1.50;0.60;;;;;;;;;;5060395;28;20222;-70
2022/07/05 03:48:42;;;;;;;0.60;0.40;;;;;;;;;;5061283;28;20284;-71
2022/07/05 03:51:29;;;;;;;0.80;0.57;;;;;;;;;;5063540;28;20696;-71
2022/07/05 03:54:18;;;;;;;0.63;0.63;;;;;;;;;;5057346;28;20216;-70
2022/07/05 03:57:05;;;;;;;0.53;0.30;;;;;;;;;;5059345;28;20344;-70
2022/07/05 03:59:52;;;;;;;0.43;0.40;;;;;;;;;;5057681;28;20234;-71
2022/07/05 04:02:39;;;;;;;0.43;0.40;;;;;;;;;;5063617;28;20230;-70
2022/07/05 04:05:26;;;;;;;1.20;0.50;;;;;;;;;;5059206;28;20215;-70
2022/07/05 04:08:13;;;;;;;0.63;0.47;;;;;;;;;;5059527;28;20212;-70
2022/07/05 04:11:02;;;;;;;1.83;0.47;;;;;;;;;;5057889;28;20634;-70
2022/07/05 04:13:48;;;;;;;0.40;0.40;;;;;;;;;;5059997;28;20243;-71
2022/07/05 04:16:38;;;;;;;0.70;0.50;;;;;;;;;;5062152;28;20264;-71
2022/07/05 04:19:25;;;;;;;0.40;0.40;;;;;;;;;;5056266;28;20227;-70
2022/07/05 04:22:13;;;;;;;0.63;0.63;;;;;;;;;;5054927;28;20220;-70
2022/07/05 04:28:05;;;;;;;0.73;0.50;;;;;;;;;;5057342;28;20233;-70
2022/07/05 04:30:53;;;;;;;0.30;0.30;;;;;;;;;;5059780;28;20228;-70
2022/07/05 04:33:40;;;;;;;0.53;0.43;;;;;;;;;;5056726;28;20208;-71
2022/07/05 04:36:27;;;;;;;0.80;0.50;;;;;;;;;;5062324;28;20224;-70
2022/07/05 04:39:15;;;;;;;0.73;0.53;;;;;;;;;;5056798;28;20393;-70
2022/07/05 04:42:02;;;;;;;0.43;0.43;;;;;;;;;;5061188;28;20292;-70
2022/07/05 04:44:50;;;;;;;0.50;0.50;;;;;;;;;;5061527;28;20569;-70
2022/07/05 04:47:37;;;;;;;0.83;0.67;;;;;;;;;;5051596;28;20205;-70
2022/07/05 04:50:24;;;;;;;0.37;0.37;;;;;;;;;;5062519;28;20211;-70
2022/07/05 04:53:12;;;;;;;1.13;0.50;;;;;;;;;;5056045;28;20577;-71
2022/07/05 04:55:59;;;;;;;1.03;0.70;;;;;;;;;;5057354;28;20222;-70
2022/07/05 04:58:46;;;;;;;0.60;0.53;;;;;;;;;;5049758;28;20224;-70
2022/07/05 05:01:35;;;;;;;1.07;0.60;;;;;;;;;;5056789;28;20207;-70
2022/07/05 05:04:22;;;;;;;1.70;0.60;;;;;;;;;;5059007;28;20209;-70
2022/07/05 05:07:09;;;;;;;1.90;0.90;;;;;;;;;;5058477;28;20208;-70
2022/07/05 05:09:56;;;;;;;0.30;0.30;;;;;;;;;;5060634;28;20821;-70
2022/07/05 05:12:46;;;;;;;0.80;0.53;;;;;;;;;;5064640;28;20337;-70
2022/07/05 05:15:33;;;;;;;1.13;0.70;;;;;;;;;;5059926;28;20234;-71
2022/07/05 05:18:26;;;;;;;0.40;0.40;;;;;;;;;;5056096;28;20678;-70
2022/07/05 05:21:13;;;;;;;0.73;0.73;;;;;;;;;;5058652;28;20204;-70
2022/07/05 05:24:00;;;;;;;0.60;0.40;;;;;;;;;;5058194;28;20266;-70
2022/07/05 05:26:49;;;;;;;0.73;0.50;;;;;;;;;;5057255;28;20207;-70
2022/07/05 05:29:36;;;;;;;0.67;0.57;;;;;;;;;;5059757;28;20764;-70
2022/07/05 05:32:22;;;;;;;0.50;0.50;;;;;;;;;;5060257;28;20222;-70
2022/07/05 05:35:11;;;;;;;0.83;0.70;;;;;;;;;;5064779;28;20318;-70
2022/07/05 05:37:58;;;;;;;1.33;0.80;;;;;;;;;;5061680;28;20217;-71
2022/07/05 05:40:45;;;;;;;0.57;0.57;;;;;;;;;;5063228;28;20213;-70
2022/07/05 05:43:32;;;;;;;0.60;0.60;;;;;;;;;;5066416;28;20300;-71
2022/07/05 05:46:19;;;;;;;1.13;0.57;;;;;;;;;;5061016;28;20210;-71
2022/07/05 05:49:06;;;;;;;0.43;0.40;;;;;;;;;;5064418;28;20677;-70
2022/07/05 05:51:55;;;;;;;1.10;0.57;;;;;;;;;;5061355;28;20202;-70
2022/07/05 05:54:42;;;;;;;0.50;0.50;;;;;;;;;;5063341;28;20271;-70
2022/07/05 05:57:29;;;;;;;0.90;0.43;;;;;;;;;;5054444;28;20237;-71
2022/07/05 06:00:17;;;;;;;1.10;0.80;;;;;;;;;;5060202;28;20739;-70
2022/07/05 06:03:05;;;;;;;0.40;0.40;;;;;;;;;;5058434;28;20262;-70
2022/07/05 06:05:52;;;;;;;0.47;0.32;;;;;;;;;;5064107;28;20215;-70
2022/07/05 06:08:41;;;;;;;1.50;0.57;;;;;;;;;;5061841;28;20295;-71
2022/07/05 06:11:28;;;;;;;0.95;0.70;;;;;;;;;;5063917;28;20247;-70
2022/07/05 06:14:15;;;;;;;0.95;0.43;;;;;;;;;;5064015;28;20203;-70
2022/07/05 06:17:02;;;;;;;1.13;0.70;;;;;;;;;;5053665;28;20726;-70
2022/07/05 06:19:48;;;;;;;0.40;0.38;;;;;;;;;;5057356;28;20211;-70
2022/07/05 06:22:35;;;;;;;0.40;0.30;;;;;;;;;;5061555;28;20239;-71
2022/07/05 06:25:24;;;;;;;0.80;0.60;;;;;;;;;;5058980;28;20693;-70
2022/07/05 06:28:11;;;;;;;0.88;0.45;;;;;;;;;;5061985;28;20207;-70
2022/07/05 06:30:58;;;;;;;0.60;0.60;;;;;;;;;;5058858;28;20210;-71
2022/07/05 06:33:45;;;;;;;1.05;0.75;;;;;;;;;;5060485;28;20538;-71
2022/07/05 06:36:32;;;;;;;0.50;0.50;;;;;;;;;;5064452;28;20242;-71
2022/07/05 06:39:19;;;;;;;1.02;0.55;;;;;;;;;;5062613;28;20220;-71
2022/07/05 06:42:08;;;;;;;0.88;0.50;;;;;;;;;;5057065;28;20219;-71
2022/07/05 06:44:55;;;;;;;0.85;0.55;;;;;;;;;;5058379;28;20313;-70
2022/07/05 06:47:41;;;;;;;0.73;0.50;;;;;;;;;;5062431;28;20215;-69
2022/07/05 06:50:30;;;;;;;1.67;0.73;;;;;;;;;;5063703;28;20604;-71
2022/07/05 06:53:17;;;;;;;0.32;0.32;;;;;;;;;;5061087;28;20207;-70
2022/07/05 06:56:05;;;;;;;0.88;0.55;;;;;;;;;;5061294;28;20231;-69
2022/07/05 06:58:55;;;;;;;0.40;0.40;;;;;;;;;;5059930;28;20336;-70
2022/07/05 07:01:42;;;;;;;1.13;0.68;;;;;;;;;;5060714;28;20203;-69
2022/07/05 07:04:29;;;;;;;1.35;0.60;;;;;;;;;;5061205;28;20577;-70
2022/07/05 07:10:21;;;;;;;0.68;0.47;;;;;;;;;;5058626;28;20709;-70
2022/07/05 07:13:08;;;;;;;1.10;0.68;;;;;;;;;;5060307;28;20207;-69
2022/07/05 07:15:57;;;;;;;0.82;0.40;;;;;;;;;;5058691;28;20688;-69
2022/07/05 07:18:44;;;;;;;0.75;0.40;;;;;;;;;;5060318;28;20199;-69
2022/07/05 07:21:31;;;;;;;0.60;0.60;;;;;;;;;;5064378;28;20203;-69
2022/07/05 07:24:18;;;;;;;1.15;0.40;;;;;;;;;;5059208;28;20337;-69
2022/07/05 07:27:06;;;;;;;1.23;0.63;;;;;;;;;;5061013;28;20222;-69
2022/07/05 07:29:53;;;;;;;0.68;0.50;;;;;;;;;;5063052;28;20206;-70
2022/07/05 07:32:42;;;;;;;1.02;0.80;;;;;;;;;;5064412;28;20341;-70
2022/07/05 07:35:29;;;;;;;0.52;0.50;;;;;;;;;;5053527;28;20362;-70
2022/07/05 07:38:16;;;;;;;0.40;0.40;;;;;;;;;;5054069;28;20267;-69
2022/07/05 07:41:03;;;;;;;0.80;0.80;;;;;;;;;;5056556;28;20330;-69
2022/07/05 07:43:50;;;;;;;0.93;0.60;;;;;;;;;;5055572;28;20208;-69
2022/07/05 07:46:39;;;;;;;0.65;0.60;;;;;;;;;;5063222;28;20261;-70
2022/07/05 07:49:27;;;;;;;1.17;0.60;;;;;;;;;;5055755;28;20619;-70
2022/07/05 07:52:16;;;;;;;0.63;0.60;;;;;;;;;;5056947;28;20200;-69
2022/07/05 07:55:03;;;;;;;0.70;0.60;;;;;;;;;;5065156;28;20213;-70
2022/07/05 07:57:51;;;;;;;0.80;0.70;;;;;;;;;;5059084;28;20337;-71
2022/07/05 08:00:38;;;;;;;0.98;0.80;;;;;;;;;;5060291;28;20200;-70
2022/07/05 08:03:25;;;;;;;1.75;0.50;;;;;;;;;;5056897;28;20235;-71
2022/07/05 08:06:15;;;;;;;0.60;0.50;;;;;;;;;;5062219;28;20211;-69
2022/07/05 08:09:02;;;;;;;0.93;0.60;;;;;;;;;;5055390;28;20211;-70
2022/07/05 08:11:49;;;;;;;1.27;0.75;;;;;;;;;;5061161;28;20222;-70
2022/07/05 08:14:36;;;;;;;0.50;0.43;;;;;;;;;;5059460;28;20211;-71
2022/07/05 08:17:24;;;;;;;0.80;0.77;;;;;;;;;;5056185;28;20246;-70
2022/07/05 08:23:17;;;;;;;1.92;0.80;;;;;;;;;;5060662;28;20675;-70
2022/07/05 08:26:04;;;;;;;1.17;0.65;;;;;;;;;;5062510;28;20192;-70
2022/07/05 08:28:51;;;;;;;0.70;0.68;;;;;;;;;;5061177;28;20556;-70
2022/07/05 08:31:40;;;;;;;1.13;0.73;;;;;;;;;;5060468;28;20211;-70
2022/07/05 08:34:27;;;;;;;1.20;0.73;;;;;;;;;;5059672;28;20207;-70
2022/07/05 08:37:14;;;;;;;1.15;0.70;;;;;;;;;;5059655;28;20222;-70
2022/07/05 08:40:04;;;;;;;0.90;0.60;;;;;;;;;;5059685;28;20203;-70
2022/07/05 08:42:53;;;;;;;0.80;0.80;;;;;;;;;;5053407;28;20207;-70
2022/07/05 08:45:40;;;;;;;0.60;0.60;;;;;;;;;;5052845;28;20203;-70
2022/07/05 08:48:29;;;;;;;0.95;0.50;;;;;;;;;;5054368;28;20214;-70
2022/07/05 08:51:17;;;;;;;1.75;0.85;;;;;;;;;;5061387;28;21267;-70
2022/07/05 08:54:05;;;;;;;0.95;0.57;;;;;;;;;;5056699;28;20246;-70
2022/07/05 08:56:53;;;;;;;1.67;0.77;;;;;;;;;;5054249;28;20229;-70
2022/07/05 08:59:40;;;;;;;1.17;0.70;;;;;;;;;;5056959;28;20238;-70
2022/07/05 09:02:27;;;;;;;0.95;0.60;;;;;;;;;;5060571;28;20219;-69
2022/07/05 09:05:18;;;;;;;1.05;0.70;;;;;;;;;;5060044;28;20231;-71
2022/07/05 09:08:07;;;;;;;0.90;0.77;;;;;;;;;;5055554;28;20229;-71
2022/07/05 09:10:55;;;;;;;0.52;0.47;;;;;;;;;;5057681;28;20243;-71
2022/07/05 09:13:48;;;;;;;0.70;0.60;;;;;;;;;;5054866;28;20204;-71
2022/07/05 09:16:35;;;;;;;1.35;0.93;;;;;;;;;;5054720;28;20294;-70
2022/07/05 09:19:22;;;;;;;0.52;0.40;;;;;;;;;;5058328;28;20660;-71
2022/07/05 09:22:10;;;;;;;0.88;0.70;;;;;;;;;;5060418;28;20249;-71
2022/07/05 09:24:57;;;;;;;1.13;0.50;;;;;;;;;;5058160;28;20215;-71
2022/07/05 09:27:49;;;;;;;0.93;0.63;;;;;;;;;;5059899;28;20207;-71
2022/07/05 09:30:39;;;;;;;2.03;0.77;;;;;;;;;;5060159;28;20203;-72
2022/07/05 09:33:26;;;;;;;0.45;0.40;;;;;;;;;;5065890;28;20212;-72
2022/07/05 09:36:13;;;;;;;0.70;0.60;;;;;;;;;;5060694;28;20314;-70
2022/07/05 09:39:00;;;;;;;0.73;0.50;;;;;;;;;;5054562;28;20249;-71
2022/07/05 09:41:47;;;;;;;1.23;0.60;;;;;;;;;;5054721;28;20278;-71
2022/07/05 09:44:36;;;;;;;0.82;0.60;;;;;;;;;;5055451;28;20203;-71
2022/07/05 09:47:28;;;;;;;1.35;0.60;;;;;;;;;;5057052;28;20203;-70
2022/07/05 09:50:15;;;;;;;0.60;0.60;;;;;;;;;;5059622;28;20214;-71
2022/07/05 09:53:02;;;;;;;0.68;0.52;;;;;;;;;;5058660;28;20204;-71
2022/07/05 09:56:02;;;;;;;0.63;0.60;;;;;;;;;;5059168;28;20202;-71
2022/07/05 09:58:49;;;;;;;0.50;0.50;;;;;;;;;;5056315;28;20215;-71
2022/07/05 10:01:37;;;;;;;1.08;0.73;;;;;;;;;;5062677;28;20203;-71
2022/07/05 10:04:25;;;;;;;0.80;0.57;;;;;;;;;;5059171;28;20214;-71
2022/07/05 10:07:31;;;;;;;0.95;0.70;;;;;;;;;;5051748;28;20200;-70
2022/07/05 10:10:19;;;;;;;1.63;0.65;;;;;;;;;;5056531;28;20258;-70
2022/07/05 10:13:06;;;;;;;1.23;0.52;;;;;;;;;;5055870;28;20627;-69
2022/07/05 10:15:54;;;;;;;0.98;0.60;;;;;;;;;;5060653;28;20210;-70
2022/07/05 10:18:41;;;;;;;1.55;0.77;;;;;;;;;;5062698;28;20213;-70
2022/07/05 10:21:30;;;;;;;0.60;0.50;;;;;;;;;;5062959;28;20214;-70
2022/07/05 10:24:19;;;;;;;0.77;0.57;;;;;;;;;;5059025;28;20199;-70
2022/07/05 10:27:08;;;;;;;0.98;0.50;;;;;;;;;;5059796;28;20686;-71
2022/07/05 10:29:57;;;;;;;3.92;0.73;;;;;;;;;;5060372;28;20675;-70
2022/07/05 10:32:45;;;;;;;0.55;0.43;;;;;;;;;;5061012;28;20207;-69
2022/07/05 10:35:33;;;;;;;1.40;0.77;;;;;;;;;;5059733;28;20195;-70
2022/07/05 10:38:22;;;;;;;0.50;0.50;;;;;;;;;;5066328;28;20273;-70
2022/07/05 10:41:15;;;;;;;0.88;0.40;;;;;;;;;;5057396;28;20207;-69
2022/07/05 10:44:02;;;;;;;1.58;1.00;;;;;;;;;;5061911;28;20256;-71
2022/07/05 10:46:49;;;;;;;1.00;0.65;;;;;;;;;;5057643;28;20231;-71
2022/07/05 10:49:36;;;;;;;1.10;0.77;;;;;;;;;;5059439;28;20202;-70
2022/07/05 10:52:24;;;;;;;1.13;0.70;;;;;;;;;;5058759;28;20203;-70
2022/07/05 10:55:24;;;;;;;0.77;0.68;;;;;;;;;;5057022;28;20211;-70
2022/07/05 10:58:27;;;;;;;2.58;0.80;;;;;;;;;;5056592;28;20492;-70
2022/07/05 11:01:35;;;;;;;1.92;0.70;;;;;;;;;;5034459;28;20196;-70
2022/07/05 11:04:29;;;;;;;2.45;0.70;;;;;;;;;;5049650;28;20212;-71
2022/07/05 11:07:16;;;;;;;0.70;0.68;;;;;;;;;;5062368;28;20298;-70
2022/07/05 11:10:07;;;;;;;0.73;0.50;;;;;;;;;;5056631;28;20230;-69
2022/07/05 11:12:55;;;;;;;0.75;0.65;;;;;;;;;;5054303;28;20697;-71
2022/07/05 11:16:16;;;;;;;0.98;0.60;;;;;;;;;;5062101;28;20211;-70
2022/07/05 11:19:07;;;;;;;0.65;0.60;;;;;;;;;;5054876;28;20231;-70
2022/07/05 11:22:01;;;;;;;1.25;0.50;;;;;;;;;;5061291;28;20207;-69
2022/07/05 11:24:48;;;;;;;0.95;0.73;;;;;;;;;;5059633;28;20227;-71
2022/07/05 11:27:36;;;;;;;0.47;0.43;;;;;;;;;;5057568;28;20210;-71
2022/07/05 11:30:25;;;;;;;1.15;0.50;;;;;;;;;;5059268;28;20220;-70
2022/07/05 11:33:28;;;;;;;0.90;0.60;;;;;;;;;;5062456;28;20208;-71
2022/07/05 11:36:25;;;;;;;1.15;0.80;;;;;;;;;;5058536;28;20227;-70
2022/07/05 11:39:15;;;;;;;0.82;0.70;;;;;;;;;;5060019;28;20202;-70
2022/07/05 11:42:02;;;;;;;1.05;0.50;;;;;;;;;;5060680;28;20219;-69
2022/07/05 11:44:51;;;;;;;1.85;0.47;;;;;;;;;;5055897;28;20215;-69
2022/07/05 11:47:40;;;;;;;0.77;0.40;;;;;;;;;;5058231;28;20203;-69
2022/07/05 11:50:30;;;;;;;0.85;0.55;;;;;;;;;;5058325;28;20693;-69
2022/07/05 11:53:26;;;;;;;1.08;0.57;;;;;;;;;;5057068;28;20744;-69
2022/07/05 11:56:13;;;;;;;1.30;0.57;;;;;;;;;;5056995;28;20230;-69
2022/07/05 11:59:16;;;;;;;0.38;0.30;;;;;;;;;;5057384;28;20207;-69
2022/07/05 12:02:04;;;;;;;0.77;0.50;;;;;;;;;;5057415;28;20225;-69
2022/07/05 12:04:54;;;;;;;1.08;0.47;;;;;;;;;;5055233;28;20218;-69
2022/07/05 12:07:48;;;;;;;0.63;0.50;;;;;;;;;;5063476;28;20199;-69
2022/07/05 12:13:45;;;;;;;0.43;0.32;;;;;;;;;;5059091;28;20294;-69
2022/07/05 12:16:32;;;;;;;0.60;0.60;;;;;;;;;;5066061;28;20203;-71
2022/07/05 12:19:26;;;;;;;0.77;0.60;;;;;;;;;;5060292;28;20313;-69
2022/07/05 12:22:15;;;;;;;0.77;0.57;;;;;;;;;;5057833;28;20623;-69
2022/07/05 12:25:03;;;;;;;0.80;0.60;;;;;;;;;;5055470;28;20340;-70
2022/07/05 12:27:54;;;;;;;0.75;0.55;;;;;;;;;;5060386;28;20210;-69
2022/07/05 12:30:41;;;;;;;0.70;0.70;;;;;;;;;;5059505;28;20210;-69
2022/07/05 12:33:28;;;;;;;0.60;0.60;;;;;;;;;;5059322;28;20218;-69
2022/07/05 12:36:17;;;;;;;0.70;0.45;;;;;;;;;;5062258;28;20203;-70
2022/07/05 12:39:05;;;;;;;0.50;0.43;;;;;;;;;;5056404;28;20579;-69
2022/07/05 12:41:53;;;;;;;0.40;0.40;;;;;;;;;;5056444;28;20222;-70
2022/07/05 12:44:40;;;;;;;0.57;0.50;;;;;;;;;;5060112;28;20211;-69
2022/07/05 12:47:27;;;;;;;1.25;0.55;;;;;;;;;;5063170;28;20617;-69
2022/07/05 12:50:14;;;;;;;0.40;0.35;;;;;;;;;;5061576;28;20223;-69
2022/07/05 12:58:01;;;;;;;1.45;0.70;;;;;;;;;;5055597;28;20218;-69
2022/07/05 12:59:19;;;;;;;1.15;0.45;;;;;;;;;;5061183;28;20207;-70
2022/07/05 13:02:06;;;;;;;0.57;0.57;;;;;;;;;;5058297;28;20231;-70
2022/07/05 13:04:54;;;;;;;0.52;0.40;;;;;;;;;;5057390;28;20227;-69
2022/07/05 13:07:44;;;;;;;0.77;0.57;;;;;;;;;;5053232;28;20257;-70
2022/07/05 13:10:32;;;;;;;1.27;0.70;;;;;;;;;;5052234;28;20368;-70
2022/07/05 13:13:21;;;;;;;0.60;0.60;;;;;;;;;;5056488;28;20252;-72
2022/07/05 13:16:08;;;;;;;1.15;0.60;;;;;;;;;;5063425;28;20195;-72
2022/07/05 13:19:07;;;;;;;0.60;0.52;;;;;;;;;;5062759;28;20239;-73
2022/07/05 13:21:54;;;;;;;1.13;0.80;;;;;;;;;;5057632;28;20225;-73
2022/07/05 13:24:42;;;;;;;0.85;0.60;;;;;;;;;;5055797;28;20208;-73
2022/07/05 13:27:28;;;;;;;0.57;0.57;;;;;;;;;;5058503;28;20219;-72
2022/07/05 13:30:17;;;;;;;1.20;0.70;;;;;;;;;;5062624;28;20663;-72
2022/07/05 13:33:04;;;;;;;1.30;0.57;;;;;;;;;;5058940;28;20575;-72
2022/07/05 13:35:51;;;;;;;1.05;0.82;;;;;;;;;;5061709;28;20207;-73
2022/07/05 13:38:38;;;;;;;1.42;0.60;;;;;;;;;;5058284;28;20258;-72
2022/07/05 13:41:25;;;;;;;1.08;0.70;;;;;;;;;;5058890;28;20213;-72
2022/07/05 13:44:12;;;;;;;0.43;0.43;;;;;;;;;;5057985;28;20979;-73
2022/07/05 13:47:00;;;;;;;1.08;0.93;;;;;;;;;;5059407;28;20205;-73
2022/07/05 13:49:47;;;;;;;1.05;0.57;;;;;;;;;;5053765;28;20214;-72
2022/07/05 13:52:34;;;;;;;0.50;0.50;;;;;;;;;;5056213;28;20736;-73
2022/07/05 13:55:21;;;;;;;0.57;0.57;;;;;;;;;;5070124;28;20210;-72
2022/07/05 13:58:08;;;;;;;0.90;0.70;;;;;;;;;;5068636;28;20229;-73
2022/07/05 14:00:55;;;;;;;0.50;0.50;;;;;;;;;;5069016;28;20218;-73
2022/07/05 14:03:43;;;;;;;0.82;0.65;;;;;;;;;;5062453;28;20226;-73
2022/07/05 14:06:31;;;;;;;0.68;0.60;;;;;;;;;;5059110;28;20217;-73
2022/07/05 14:09:18;;;;;;;2.53;0.70;;;;;;;;;;5060425;28;20221;-73
2022/07/05 14:12:06;;;;;;;0.93;0.80;;;;;;;;;;5040174;28;21467;-73
2022/07/05 14:14:53;;;;;;;0.82;0.70;;;;;;;;;;5040197;28;20212;-73
2022/07/05 14:17:40;;;;;;;0.80;0.60;;;;;;;;;;5043385;28;20231;-73
2022/07/05 14:20:29;;;;;;;0.55;0.38;;;;;;;;;;5040406;28;20616;-73
2022/07/05 14:23:17;;;;;;;0.50;0.50;;;;;;;;;;5036344;28;20207;-73
2022/07/05 14:26:04;;;;;;;0.93;0.68;;;;;;;;;;5041561;28;20284;-72
2022/07/05 14:28:51;;;;;;;0.80;0.57;;;;;;;;;;5034269;28;20334;-73
2022/07/05 14:31:38;;;;;;;0.90;0.65;;;;;;;;;;5040551;28;20212;-72
2022/07/05 14:34:27;;;;;;;0.73;0.47;;;;;;;;;;5041683;28;20282;-73
2022/07/05 14:37:20;;;;;;;0.75;0.63;;;;;;;;;;5041507;28;20211;-73
2022/07/05 14:40:08;;;;;;;1.13;0.50;;;;;;;;;;5036228;28;20216;-73
2022/07/05 14:42:55;;;;;;;0.77;0.57;;;;;;;;;;5044540;28;20214;-73
2022/07/05 14:45:42;;;;;;;0.77;0.60;;;;;;;;;;5038646;28;20207;-73
2022/07/05 14:48:30;;;;;;;0.75;0.70;;;;;;;;;;5034342;28;20215;-73
2022/07/05 14:51:18;;;;;;;1.17;0.35;;;;;;;;;;5041000;28;20219;-73
2022/07/05 14:54:07;;;;;;;0.47;0.43;;;;;;;;;;5034711;28;20210;-73
2022/07/05 14:56:54;;;;;;;1.05;0.60;;;;;;;;;;5039558;28;20629;-73
2022/07/05 14:59:42;;;;;;;0.55;0.43;;;;;;;;;;5039525;28;20208;-73
2022/07/05 15:02:32;;;;;;;1.00;0.73;;;;;;;;;;5044334;28;20284;-73
2022/07/05 15:05:19;;;;;;;0.90;0.60;;;;;;;;;;5037320;28;20681;-73
2022/07/05 15:08:06;;;;;;;0.45;0.40;;;;;;;;;;5043965;28;20203;-73
2022/07/05 15:10:55;;;;;;;0.52;0.50;;;;;;;;;;5053836;28;20238;-72
2022/07/05 15:13:41;;;;;;;0.40;0.40;;;;;;;;;;5063900;28;20343;-72
2022/07/05 15:16:28;;;;;;;0.90;0.50;;;;;;;;;;5053343;28;20217;-72
2022/07/05 15:19:16;;;;;;;0.73;0.65;;;;;;;;;;5059609;28;20310;-73
2022/07/05 15:22:03;;;;;;;0.88;0.80;;;;;;;;;;5057708;28;20609;-73
2022/07/05 15:24:50;;;;;;;0.70;0.43;;;;;;;;;;5057231;28;20207;-73
2022/07/05 15:27:38;;;;;;;0.40;0.40;;;;;;;;;;5058540;28;20210;-73
2022/07/05 15:30:25;;;;;;;1.00;0.40;;;;;;;;;;5061338;28;20213;-73
2022/07/05 15:33:14;;;;;;;0.70;0.70;;;;;;;;;;5060679;28;20638;-73
2022/07/05 15:36:01;;;;;;;0.50;0.50;;;;;;;;;;5055677;28;20221;-73
2022/07/05 15:38:49;;;;;;;0.82;0.60;;;;;;;;;;5058139;28;20233;-73
2022/07/05 15:41:36;;;;;;;0.32;0.30;;;;;;;;;;5053759;28;20589;-73
2022/07/05 15:44:25;;;;;;;0.52;0.52;;;;;;;;;;5058838;28;20755;-73
2022/07/05 15:47:12;;;;;;;1.40;0.82;;;;;;;;;;5057766;28;20287;-72
2022/07/05 15:49:59;;;;;;;0.83;0.67;;;;;;;;;;5058383;28;20207;-72
2022/07/05 15:52:46;;;;;;;0.75;0.45;;;;;;;;;;5055684;28;20213;-73
2022/07/05 15:55:33;;;;;;;0.52;0.40;;;;;;;;;;5064957;28;20213;-73
2022/07/05 15:58:21;;;;;;;0.80;0.50;;;;;;;;;;5056313;28;20269;-73
2022/07/05 16:01:10;;;;;;;0.60;0.40;;;;;;;;;;5052680;28;20204;-73
2022/07/05 16:03:58;;;;;;;1.73;0.53;;;;;;;;;;5059488;28;20288;-73
2022/07/05 16:06:45;;;;;;;0.70;0.53;;;;;;;;;;5054055;28;20322;-73
2022/07/05 16:09:32;;;;;;;0.47;0.45;;;;;;;;;;5055156;28;20233;-73
2022/07/05 16:12:20;;;;;;;0.50;0.50;;;;;;;;;;5056175;28;20206;-73
2022/07/05 16:15:09;;;;;;;0.40;0.40;;;;;;;;;;5054770;28;20227;-73
2022/07/05 16:17:57;;;;;;;0.87;0.53;;;;;;;;;;5057095;28;20299;-73
2022/07/05 16:20:44;;;;;;;0.70;0.50;;;;;;;;;;5055728;28;20212;-72
2022/07/05 16:23:31;;;;;;;0.77;0.43;;;;;;;;;;5058989;28;20203;-72
2022/07/05 16:26:19;;;;;;;0.70;0.60;;;;;;;;;;5061523;28;20212;-73
2022/07/05 16:29:07;;;;;;;0.43;0.30;;;;;;;;;;5060591;28;20197;-73
2022/07/05 16:31:55;;;;;;;0.45;0.45;;;;;;;;;;5055311;28;20205;-73
2022/07/05 16:34:43;;;;;;;0.60;0.53;;;;;;;;;;5058613;28;20219;-73
2022/07/05 16:37:30;;;;;;;0.83;0.70;;;;;;;;;;5056995;28;20692;-73
2022/07/05 16:40:17;;;;;;;0.80;0.40;;;;;;;;;;5057985;28;20237;-72
2022/07/05 16:43:04;;;;;;;0.73;0.50;;;;;;;;;;5059483;28;20216;-73
2022/07/05 16:45:51;;;;;;;0.70;0.60;;;;;;;;;;5056159;28;20291;-73
2022/07/05 16:48:39;;;;;;;1.03;0.70;;;;;;;;;;5057523;28;20252;-73
2022/07/05 16:51:28;;;;;;;0.67;0.60;;;;;;;;;;5061313;28;20560;-72
2022/07/05 16:54:15;;;;;;;0.47;0.40;;;;;;;;;;5057711;28;20636;-73
2022/07/05 16:57:02;;;;;;;0.57;0.50;;;;;;;;;;5060328;28;20207;-73
2022/07/05 16:59:49;;;;;;;1.23;0.63;;;;;;;;;;5053483;28;20233;-72
2022/07/05 17:02:36;;;;;;;0.60;0.60;;;;;;;;;;5056728;28;20245;-73
2022/07/05 17:05:23;;;;;;;1.00;0.60;;;;;;;;;;5056012;28;20215;-73
2022/07/05 17:08:12;;;;;;;0.50;0.50;;;;;;;;;;5057051;28;20322;-73